Latest Weather Observations for Badgingarra

IDW60801

Issued at 10:02 pm WST Saturday 25 April 2015 (issued every 30 minutes, with the page automatically refreshed every 10 minutes)

About weather observations | Map of weather stations | Latest weather observations for WA | Other Formats
Station Details ID: 009037 Name: BADGINGARRA RESEARCH STN Lat: -30.34 Lon: 115.54 Height: 275.0 m
Data from the previous 72 hours. | See also: Recent months at Badgingarra
Date/Time
WST
Temp
°C
App
Temp
°C
Dew
Point
Rel
Hum
%
Delta-T
°C
Wind Press
QNH
hPa
Press
MSL
hPa
Rain
since 9 am
mm
Dir
 
Spd
km/h
Gust
km/h
Spd
kts
Gust
kts
25/10:00pm 15.2 8.7 2.4 42 5.8 E 26 35 14 19 - - 0.0
25/09:30pm 15.5 9.3 2.0 40 6.1 E 24 33 13 18 - - 0.0
25/09:00pm 15.8 10.4 2.2 40 6.2 ESE 20 28 11 15 - - 0.0
25/08:30pm 15.6 10.3 2.1 40 6.1 ESE 19 24 10 13 - - 0.0
25/08:00pm 15.9 11.0 2.0 39 6.3 ESE 17 20 9 11 - - 0.0
25/07:30pm 16.3 11.4 2.0 38 6.5 E 17 22 9 12 - - 0.0
25/07:00pm 16.6 11.7 1.9 37 6.7 E 17 20 9 11 - - 0.0
25/06:30pm 17.0 12.4 1.4 35 7.0 E 15 19 8 10 - - 0.0
25/06:00pm 18.2 13.2 1.3 32 7.7 E 17 22 9 12 - - 0.0
25/05:30pm 19.9 13.9 0.9 28 8.7 E 22 33 12 18 - - 0.0
25/05:00pm 20.8 14.4 1.1 27 9.1 E 24 33 13 18 - - 0.0
25/04:30pm 21.7 14.5 0.8 25 9.6 E 28 39 15 21 - - 0.0
25/04:00pm 22.5 16.1 0.9 24 10.1 E 24 35 13 19 - - 0.0
25/03:30pm 22.6 16.2 1.0 24 10.1 ENE 24 33 13 18 - - 0.0
25/03:00pm 22.3 15.9 0.8 24 10.0 E 24 35 13 19 - - 0.0
25/02:30pm 22.3 16.3 0.8 24 10.0 E 22 33 12 18 - - 0.0
25/02:00pm 22.4 16.2 2.0 26 9.7 ENE 24 35 13 19 - - 0.0
25/01:30pm 21.8 15.1 1.5 26 9.5 ENE 26 37 14 20 - - 0.0
25/01:00pm 21.4 14.4 2.2 28 9.1 ENE 28 44 15 24 - - 0.0
25/12:30pm 21.0 14.2 3.2 31 8.6 NE 28 39 15 21 - - 0.0
25/12:00pm 20.2 12.7 3.4 33 8.1 ENE 32 41 17 22 - - 0.0
25/11:30am 19.3 11.8 3.5 35 7.6 ENE 32 39 17 21 - - 0.0
25/11:00am 18.6 11.1 3.3 36 7.2 ENE 32 41 17 22 - - 0.0
25/10:30am 18.1 10.1 3.6 38 6.9 NE 35 46 19 25 - - 0.0
25/10:00am 17.1 8.3 3.8 41 6.3 NE 39 54 21 29 - - 0.0
25/09:30am 16.1 7.0 3.9 44 5.7 NE 41 52 22 28 - - 0.0
25/09:00am 14.9 6.6 4.3 49 5.0 NE 37 50 20 27 - - 0.0
25/08:30am 13.4 4.7 4.3 54 4.2 ENE 39 54 21 29 - - 0.0
25/08:00am 12.3 4.4 4.3 58 3.7 ENE 35 43 19 23 - - 0.0
25/07:30am 11.7 3.0 4.2 60 3.4 ENE 39 52 21 28 - - 0.0
25/07:00am 10.7 3.1 4.0 63 3.0 ENE 33 46 18 25 - - 0.0
25/06:30am 10.4 2.8 3.9 64 2.9 ENE 33 43 18 23 - - 0.0
25/06:00am 10.4 2.8 3.9 64 2.9 ENE 33 43 18 23 - - 0.0
25/05:30am 10.4 3.0 3.9 64 2.9 ENE 32 41 17 22 - - 0.0
25/05:00am 10.8 3.4 4.0 63 3.1 E 32 44 17 24 - - 0.0
25/04:30am 11.0 4.0 4.0 62 3.2 E 30 39 16 21 - - 0.0
25/04:00am 11.2 5.3 4.0 61 3.3 ENE 24 35 13 19 - - 0.0
25/03:30am 11.5 5.7 4.3 61 3.3 ENE 24 35 13 19 - - 0.0
25/03:00am 11.7 5.1 4.2 60 3.4 ENE 28 37 15 20 - - 0.0
25/02:30am 12.1 5.5 4.3 59 3.6 E 28 39 15 21 - - 0.0
25/02:00am 12.2 4.8 4.2 58 3.7 E 32 41 17 22 - - 0.0
25/01:30am 12.2 4.6 3.9 57 3.8 E 33 44 18 24 - - 0.0
25/01:00am 12.3 5.2 3.8 56 3.9 E 30 39 16 21 - - 0.0
25/12:30am 12.8 5.3 3.7 54 4.1 E 32 44 17 24 - - 0.0
25/12:00am 13.1 5.4 3.5 52 4.4 ESE 33 44 18 24 - - 0.0
 
Date/Time
WST
Temp
°C
App
Temp
°C
Dew
Point
Rel
Hum
%
Delta-T
°C
Wind Press
QNH
hPa
Press
MSL
hPa
Rain
since 9 am
mm
Dir
 
Spd
km/h
Gust
km/h
Spd
kts
Gust
kts
24/11:30pm 13.3 5.7 3.1 50 4.6 ESE 32 44 17 24 - - 0.0
24/11:00pm 13.4 6.9 2.6 48 4.8 ESE 26 33 14 18 - - 0.0
24/10:30pm 14.0 7.1 2.6 46 5.1 E 28 39 15 21 - - 0.0
24/10:00pm 14.2 7.7 2.5 45 5.3 E 26 35 14 19 - - 0.0
24/09:30pm 14.8 7.9 2.4 43 5.6 E 28 37 15 20 - - 0.0
24/09:00pm 14.8 8.6 2.4 43 5.6 E 24 32 13 17 - - 0.0
24/08:30pm 14.4 9.2 2.3 44 5.4 ESE 19 24 10 13 - - 0.0
24/08:00pm 14.0 9.5 2.0 44 5.3 ESE 15 17 8 9 - - 0.0
24/07:30pm 15.4 10.1 1.9 40 6.1 ESE 19 24 10 13 - - 0.0
24/07:00pm 15.9 10.4 1.6 38 6.4 E 20 28 11 15 - - 0.0
24/06:30pm 16.0 10.6 1.3 37 6.5 ESE 19 24 10 13 - - 0.0
24/06:00pm 16.5 11.5 1.4 36 6.8 ESE 17 22 9 12 - - 0.0
24/05:30pm 17.7 11.7 1.2 33 7.4 ESE 22 28 12 15 - - 0.0
24/05:00pm 18.6 11.5 1.2 31 7.9 ESE 28 37 15 20 - - 0.0
24/04:30pm 19.7 12.3 1.7 30 8.3 E 30 39 16 21 - - 0.0
24/04:00pm 20.2 12.9 2.5 31 8.3 E 30 39 16 21 - - 0.0
24/03:30pm 20.4 13.2 3.2 32 8.2 ESE 30 39 16 21 - - 0.0
24/03:00pm 20.5 13.1 4.1 34 8.0 ESE 32 43 17 23 - - 0.0
24/02:30pm 20.2 12.9 4.3 35 7.8 E 32 43 17 23 - - 0.0
24/02:00pm 20.1 13.0 5.4 38 7.3 E 32 41 17 22 - - 0.0
24/01:30pm 18.8 11.8 6.0 43 6.4 E 32 41 17 22 - - 0.0
24/01:00pm 19.2 12.2 6.7 44 6.4 E 33 46 18 25 - - 0.0
24/12:30pm 18.2 11.2 6.7 47 5.8 E 33 44 18 24 - - 0.0
24/12:00pm 17.1 9.7 6.9 51 5.1 E 35 48 19 26 - - 0.0
24/11:30am 16.9 9.9 7.0 52 5.0 E 33 46 18 25 - - 0.0
24/11:00am 17.3 10.0 7.4 52 5.0 E 35 46 19 25 - - 0.0
24/10:30am 16.3 7.4 7.0 54 4.7 ENE 43 54 23 29 - - 0.0
24/10:00am 16.0 7.9 7.2 56 4.4 E 39 56 21 30 - - 0.0
24/09:30am 14.6 5.7 6.9 60 3.8 E 43 56 23 30 - - 0.0
24/09:07am 14.2 6.1 6.8 61 3.6 E 39 57 21 31 - - 0.0
24/09:00am 13.7 6.0 7.2 65 3.2 E 37 48 20 26 - - 0.0
24/08:30am 12.4 5.0 6.7 68 2.8 E 35 50 19 27 - - 0.0
24/08:00am 11.8 4.4 6.7 71 2.5 E 35 48 19 26 - - 0.0
24/07:30am 11.6 4.6 6.7 72 2.4 E 33 54 18 29 - - 0.0
24/07:25am 11.5 4.1 6.8 73 2.3 E 35 54 19 29 - - 0.0
24/07:00am 11.4 4.0 6.7 73 2.3 E 35 48 19 26 - - 0.0
24/06:30am 11.4 4.0 6.9 74 2.2 E 35 50 19 27 - - 0.0
24/06:00am 11.6 3.5 7.1 74 2.2 E 39 52 21 28 - - 0.0
24/05:30am 11.8 4.1 7.1 73 2.3 E 37 50 20 27 - - 0.0
24/05:00am 12.0 4.3 6.9 71 2.5 E 37 52 20 28 - - 0.0
24/04:30am 12.3 4.6 7.0 70 2.6 E 37 52 20 28 - - 0.0
24/04:02am 12.5 5.1 6.8 68 2.8 E 35 54 19 29 - - 0.0
24/04:00am 12.5 4.7 6.8 68 2.8 E 37 54 20 29 - - 0.0
24/03:30am 12.8 5.7 6.4 65 3.1 E 33 52 18 28 - - 0.0
24/03:23am 12.9 5.8 6.5 65 3.1 E 33 52 18 28 - - 0.0
24/03:00am 13.2 6.3 6.3 63 3.3 E 32 44 17 24 - - 0.0
24/02:39am 13.6 7.4 6.2 61 3.6 ESE 28 48 15 26 - - 0.0
24/02:30am 13.8 6.9 6.4 61 3.6 ESE 32 46 17 25 - - 0.0
24/02:00am 14.2 7.1 6.3 59 3.8 ESE 33 54 18 29 - - 0.0
24/01:54am 14.3 7.2 6.4 59 3.9 ESE 33 54 18 29 - - 0.0
24/01:30am 14.6 7.5 6.4 58 4.0 ESE 33 52 18 28 - - 0.0
24/01:00am 15.0 8.2 6.8 58 4.1 ESE 32 44 17 24 - - 0.0
24/12:30am 15.2 8.8 7.0 58 4.1 ESE 30 39 16 21 - - 0.0
24/12:00am 15.8 9.1 7.3 57 4.3 ESE 32 41 17 22 - - 0.0
 
Date/Time
WST
Temp
°C
App
Temp
°C
Dew
Point
Rel
Hum
%
Delta-T
°C
Wind Press
QNH
hPa
Press
MSL
hPa
Rain
since 9 am
mm
Dir
 
Spd
km/h
Gust
km/h
Spd
kts
Gust
kts
23/11:30pm 16.0 9.7 7.2 56 4.4 ESE 30 41 16 22 - - 0.0
23/11:00pm 16.4 10.5 7.3 55 4.6 SE 28 35 15 19 - - 0.0
23/10:30pm 16.9 11.8 7.8 55 4.7 ESE 24 35 13 19 - - 0.0
23/10:00pm 17.5 12.1 8.1 54 4.9 ESE 26 33 14 18 - - 0.0
23/09:30pm 18.0 12.6 8.0 52 5.2 ESE 26 35 14 19 - - 0.0
23/09:00pm 18.5 13.5 8.2 51 5.4 ESE 24 33 13 18 - - 0.0
23/08:30pm 19.1 14.2 8.4 50 5.6 SE 24 37 13 20 - - 0.0
23/08:00pm 19.5 14.0 7.6 46 6.2 SE 26 35 14 19 - - 0.0
23/07:30pm 19.8 15.5 6.9 43 6.6 SE 19 28 10 15 - - 0.0
23/07:00pm 19.9 15.9 6.6 42 6.8 SE 17 22 9 12 - - 0.0
23/06:30pm 20.3 17.0 6.3 40 7.1 SE 13 17 7 9 - - 0.0
23/06:00pm 21.4 16.7 5.3 35 8.1 SE 19 24 10 13 - - 0.0
23/05:30pm 22.9 17.3 5.3 32 8.9 SE 24 32 13 17 - - 0.0
23/05:00pm 23.9 18.7 5.3 30 9.5 ESE 22 37 12 20 - - 0.0
23/04:30pm 24.6 19.0 5.4 29 9.9 ESE 24 32 13 17 - - 0.0
23/04:00pm 25.3 19.7 5.5 28 10.2 SE 24 32 13 17 - - 0.0
23/03:30pm 25.9 20.4 6.0 28 10.4 SE 24 32 13 17 - - 0.0
23/03:00pm 26.3 21.1 5.3 26 10.9 ESE 22 32 12 17 - - 0.0
23/02:30pm 26.5 21.6 4.9 25 11.1 SE 20 32 11 17 - - 0.0
23/02:00pm 26.6 21.9 5.0 25 11.2 SE 19 33 10 18 - - 0.0
23/01:30pm 26.3 21.9 4.7 25 11.1 ESE 17 28 9 15 - - 0.0
23/01:00pm 26.1 21.8 5.1 26 10.8 ESE 17 30 9 16 - - 0.0
23/12:30pm 25.7 21.0 5.3 27 10.5 ESE 19 28 10 15 - - 0.0
23/12:00pm 25.6 21.0 5.8 28 10.3 ESE 19 26 10 14 - - 0.0
23/11:30am 25.0 20.8 5.7 29 10.0 E 17 24 9 13 - - 0.0
23/11:00am 24.0 20.1 5.4 30 9.5 E 15 20 8 11 - - 0.0
23/10:30am 23.3 19.5 5.7 32 9.0 E 15 20 8 11 - - 0.0
23/10:00am 22.1 18.4 6.3 36 8.1 E 15 19 8 10 - - 0.0
23/09:30am 21.1 17.8 6.2 38 7.6 ENE 13 15 7 8 - - 0.0
23/09:00am 20.6 17.6 6.2 39 7.3 ESE 11 15 6 8 - - 0.0
23/08:30am 19.4 17.0 6.8 44 6.4 ESE 9 13 5 7 - - 0.0
23/08:00am 17.7 15.7 6.9 49 5.5 ESE 7 9 4 5 - - 0.0
23/07:30am 15.7 13.3 7.0 56 4.3 ESE 9 11 5 6 - - 0.0
23/07:00am 14.1 11.2 6.5 60 3.7 ESE 11 13 6 7 - - 0.0
23/06:30am 13.9 10.6 6.3 60 3.7 ESE 13 15 7 8 - - 0.0
23/06:00am 15.4 12.8 5.9 53 4.6 ESE 9 11 5 6 - - 0.0
23/05:30am 14.5 12.2 5.8 56 4.2 ESE 7 9 4 5 - - 0.0
23/05:00am 14.9 11.8 7.2 60 3.8 ESE 13 15 7 8 - - 0.0
23/04:30am 13.9 11.2 7.4 65 3.2 SE 11 13 6 7 - - 0.0
23/04:00am 14.1 11.2 8.1 67 3.0 SE 13 15 7 8 - - 0.0
23/03:30am 14.0 11.2 8.4 69 2.8 SE 13 13 7 7 - - 0.0
23/03:00am 14.0 11.5 8.2 68 2.9 SE 11 13 6 7 - - 0.0
23/02:30am 14.8 12.1 9.0 68 3.0 SE 13 15 7 8 - - 0.0
23/02:00am 15.0 12.1 9.8 71 2.7 SE 15 19 8 10 - - 0.0
23/01:30am 13.8 11.8 10.2 79 1.9 SSE 11 15 6 8 - - 0.0
23/01:00am 13.8 11.5 10.6 81 1.7 SSE 13 13 7 7 - - 0.0
23/12:30am 14.3 12.1 10.9 80 1.8 SSE 13 15 7 8 - - 0.0
23/12:00am 14.7 12.3 11.3 80 1.8 SSE 15 15 8 8 - - 0.0
 
Date/Time
WST
Temp
°C
App
Temp
°C
Dew
Point
Rel
Hum
%
Delta-T
°C
Wind Press
QNH
hPa
Press
MSL
hPa
Rain
since 9 am
mm
Dir
 
Spd
km/h
Gust
km/h
Spd
kts
Gust
kts
22/11:30pm 14.4 12.4 11.4 82 1.6 SSE 13 15 7 8 - - 0.0
22/11:00pm 14.9 12.6 11.9 82 1.6 SSE 15 17 8 9 - - 0.0
22/10:30pm 15.1 12.9 12.1 82 1.7 SSE 15 17 8 9 - - 0.0

Other Formats:

Comma delimited format used in spreadsheet applications
http://www.bom.gov.au/fwo/IDW60801/IDW60801.94603.axf

JavaScript Object Notation format (JSON) in row-major order
http://www.bom.gov.au/fwo/IDW60801/IDW60801.94603.json